METAR (acronimo di METeorological Air Report) è un messaggio meteo emesso nella maggior parte dei casi in ambito aeroportuale

LIPF - Ferrara, It
Distanza dalla Stazione: 8 km
Ultimo Aggiornamento: Mercoledì 20 Gennaio 2021 09:55 CET
Nebbia, Prevalentemente Nuvoloso
Nebbia, Prevalentemente Nuvoloso
 Wind from calm
Vento: Calma
Temperatura: 1°C
Punto di Rugiada: -1°C
Umidità: 87%
Barometro: 1022 hPa
Condizioni: Nebbia
Nuvole: Prevalentemente Nuvoloso
Visibilità: 1 km
Nuvole nel Dettaglio: Prevalentemente Nuvoloso 457 m
2021/01/20 08:55 LIPF 200855Z 00000KT 0800 FG BKN015 01/M01 Q1022 RMK BKN VIS MIN 0800
LIPE - Bologna Borgo Panigale, It
Distanza dalla Stazione: 46 km
Ultimo Aggiornamento: Mercoledì 20 Gennaio 2021 09:50 CET
Bruma, Prevalentemente Nuvoloso
Bruma, Prevalentemente Nuvoloso
 Wind from Ovest-Nord-Ovest
Vento: Ovest-Nord-Ovest 7 km/h
Temperatura: -1°C
Wind Chill: -4°C
Punto di Rugiada: -1°C
Umidità: 100%
Barometro: 1023 hPa
Condizioni: Bruma
Nuvole: Prevalentemente Nuvoloso
Visibilità: 2 km
Nuvole nel Dettaglio: Parzialmente Nuvoloso 122 m
Prevalentemente Nuvoloso 1524 m
2021/01/20 08:50 LIPE 200850Z 29004KT 260V340 1700 BR SCT004 BKN050 M01/M01 Q1023
LIMF - Torino Caselle, It
Distanza dalla Stazione: 320 km
Ultimo Aggiornamento: Mercoledì 20 Gennaio 2021 09:50 CET
Parzialmente Nuvoloso
Parzialmente Nuvoloso
 Wind from Ovest-Sud-Ovest
Vento: Ovest-Sud-Ovest 6 km/h
Temperatura: 1°C
Punto di Rugiada: -3°C
Umidità: 75%
Barometro: 1021 hPa
Nuvole: Parzialmente Nuvoloso
Visibilità: 10 km
Nuvole nel Dettaglio: Parzialmente Nuvoloso 1829 m
2021/01/20 08:50 LIMF 200850Z 24003KT 9999 SCT060 01/M03 Q1021
 
LIML - Milano Malpensa, It
Distanza dalla Stazione: 249 km
Ultimo Aggiornamento: Mercoledì 20 Gennaio 2021 09:50 CET
Pioggia Leggera, Bruma, Prevalentemente Nuvoloso
Pioggia Leggera, Bruma, Prevalentemente Nuvoloso
 Wind from Est
Vento: Est 6 km/h
Temperatura: 2°C
Punto di Rugiada: 1°C
Umidità: 93%
Barometro: 1022 hPa
Condizioni: Pioggia Leggera, Bruma
Nuvole: Prevalentemente Nuvoloso
Visibilità: 2 km
Nuvole nel Dettaglio: Prevalentemente Nuvoloso 152 m
Prevalentemente Nuvoloso 1067 m
2021/01/20 08:50 LIML 200850Z 08003KT 1500 -RA BR BKN005 BKN035 02/01 Q1022 NOSIG
LIME - Bergamo Orio al Serio, It
Distanza dalla Stazione: 181 km
Ultimo Aggiornamento: Mercoledì 20 Gennaio 2021 09:50 CET
Bruma, Prevalentemente Nuvoloso
Bruma, Prevalentemente Nuvoloso
 Wind from Est
Vento: Est 6 km/h
Temperatura: 2°C
Punto di Rugiada: -1°C
Umidità: 81%
Barometro: 1022 hPa
Condizioni: Bruma
Nuvole: Prevalentemente Nuvoloso
Visibilità: 4 km
Nuvole nel Dettaglio: Parzialmente Nuvoloso 1067 m
Prevalentemente Nuvoloso 1524 m
2021/01/20 08:50 LIME 200850Z 09003KT 050V130 4000 BR SCT035 BKN050 02/M01 Q1022 NOSIG
LIPZ - Venezia Tessera, It
Distanza dalla Stazione: 93 km
Ultimo Aggiornamento: Mercoledì 20 Gennaio 2021 09:50 CET
Prevalentemente Nuvoloso
Prevalentemente Nuvoloso
 Wind from Nord
Vento: Nord 9 km/h
Temperatura: 2°C
Wind Chill: -1°C
Punto di Rugiada: -2°C
Umidità: 75%
Barometro: 1023 hPa
Nuvole: Prevalentemente Nuvoloso
Visibilità: 7 km
Nuvole nel Dettaglio: Prevalentemente Nuvoloso 1524 m
2021/01/20 08:50 LIPZ 200850Z 36005KT 7000 BKN050 02/M02 Q1023 NOSIG
 
LIVT - Trieste, It
Distanza dalla Stazione: 179 km
Ultimo Aggiornamento: Mercoledì 20 Gennaio 2021 09:55 CET
Prevalentemente Nuvoloso
Prevalentemente Nuvoloso
 Wind from varies
Vento: variabile 0 km/h
Temperatura: 7°C
Punto di Rugiada: 6°C
Umidità: 93%
Barometro: 1022 hPa
Nuvole: Prevalentemente Nuvoloso
Visibilità: 6 km
Nuvole nel Dettaglio: Prevalentemente Nuvoloso 1219 m
2021/01/20 08:55 LIVT 200855Z /////KT 6000 BKN040 07/06 Q1022 RMK OVC OVC060 QUK 0 QUL 0 VIS MAR 6 KM VIS MIN 6000
LIMJ - Genova, It
Distanza dalla Stazione: 229 km
Ultimo Aggiornamento: Mercoledì 20 Gennaio 2021 09:50 CET
Pioggia Leggera, Prevalentemente Nuvoloso
Pioggia Leggera, Prevalentemente Nuvoloso
 Wind from Est
Vento: Est 9 km/h
Temperatura: 9°C
Wind Chill: 7°C
Punto di Rugiada: 5°C
Umidità: 76%
Barometro: 1021 hPa
Condizioni: Pioggia Leggera
Nuvole: Prevalentemente Nuvoloso
Visibilità: 8 km
Nuvole nel Dettaglio: Parzialmente Nuvoloso 762 m
Prevalentemente Nuvoloso 914 m
2021/01/20 08:50 LIMJ 200850Z 08005KT 050V140 8000 -RA SCT025 BKN030 09/05 Q1021
LIRQ - Firenze Amerigo Vespucci, It
Distanza dalla Stazione: 119 km
Ultimo Aggiornamento: Mercoledì 20 Gennaio 2021 09:50 CET
Bruma, Prevalentemente Nuvoloso
Bruma, Prevalentemente Nuvoloso
 Wind from varies
Vento: variabile 4 km/h
Temperatura: 6°C
Punto di Rugiada: 6°C
Umidità: 100%
Barometro: 1023 hPa
Condizioni: Bruma
Nuvole: Prevalentemente Nuvoloso
Visibilità: 4 km
Nuvole nel Dettaglio: Prevalentemente Nuvoloso 1524 m
2021/01/20 08:50 LIRQ 200850Z VRB02KT 4000 R05/1300D BR BKN050 06/06 Q1023
 
LIPY - Ancona, It
Distanza dalla Stazione: 189 km
Ultimo Aggiornamento: Mercoledì 20 Gennaio 2021 09:50 CET
Prevalentemente Nuvoloso
Prevalentemente Nuvoloso
 Wind from varies
Vento: variabile 2 km/h
Temperatura: 11°C
Punto di Rugiada: 9°C
Umidità: 88%
Barometro: 1023 hPa
Nuvole: Prevalentemente Nuvoloso
Visibilità: 10 km
Nuvole nel Dettaglio: Prevalentemente Nuvoloso 2438 m
2021/01/20 08:50 LIPY 200850Z AUTO VRB01KT 9999 BKN080/// 11/09 Q1023
LIBP - Pescara, It
Distanza dalla Stazione: 333 km
Ultimo Aggiornamento: Mercoledì 20 Gennaio 2021 09:50 CET
Sereno
Sereno
 Wind from Sud
Vento: Sud 6 km/h
Temperatura: 9°C
Punto di Rugiada: 1°C
Umidità: 58%
Barometro: 1024 hPa
Nuvole: Sereno
Visibilità: 10 km
2021/01/20 08:50 LIBP 200850Z AUTO 19003KT 160V220 9999 NCD 09/01 Q1024
LIRF - Roma-Fiumicino, It
Distanza dalla Stazione: 334 km
Ultimo Aggiornamento: Mercoledì 20 Gennaio 2021 09:50 CET
Parzialmente Nuvoloso
Parzialmente Nuvoloso
 Wind from Est
Vento: Est 9 km/h
Temperatura: 9°C
Wind Chill: 7°C
Punto di Rugiada: 6°C
Umidità: 82%
Barometro: 1025 hPa
Nuvole: Parzialmente Nuvoloso
Visibilità: 10 km
Nuvole nel Dettaglio: Parzialmente Nuvoloso 1676 m
2021/01/20 08:50 LIRF 200850Z 10005KT 080V140 9999 SCT055 09/06 Q1025 NOSIG
 
LIRN - Napoli Capodichino, It
Distanza dalla Stazione: 494 km
Ultimo Aggiornamento: Mercoledì 20 Gennaio 2021 09:50 CET
Parzialmente Nuvoloso
Parzialmente Nuvoloso
 Wind from varies
Vento: variabile 2 km/h
Temperatura: 12°C
Punto di Rugiada: 8°C
Umidità: 77%
Barometro: 1026 hPa
Nuvole: Parzialmente Nuvoloso
Visibilità: 10 km
Nuvole nel Dettaglio: Parzialmente Nuvoloso 1829 m
2021/01/20 08:50 LIRN 200850Z VRB01KT 9999 SCT060 12/08 Q1026 NOSIG
LIBD - Bari Palese, It
Distanza dalla Stazione: 594 km
Ultimo Aggiornamento: Mercoledì 20 Gennaio 2021 09:50 CET
Sereno
Sereno
 Wind from Sud
Vento: Sud 13 km/h
Temperatura: 11°C
Punto di Rugiada: 4°C
Umidità: 62%
Barometro: 1026 hPa
Condizioni: Sereno
Visibilità: superiore a 10 km
2021/01/20 08:50 LIBD 200850Z 19007KT CAVOK 11/04 Q1026
LIBG - Taranto Grottaglie, It
Distanza dalla Stazione: 670 km
Ultimo Aggiornamento: Mercoledì 20 Gennaio 2021 09:50 CET
Sereno
Sereno
 Wind from varies
Vento: variabile 2 km/h
Temperatura: 12°C
Punto di Rugiada: 7°C
Umidità: 72%
Barometro: 1027 hPa
Condizioni: Sereno
Visibilità: superiore a 10 km
2021/01/20 08:50 LIBG 200850Z VRB01KT 090V220 CAVOK 12/07 Q1027
 
LICR - Reggio Calabria, It
Distanza dalla Stazione: 819 km
Ultimo Aggiornamento: Mercoledì 20 Gennaio 2021 09:50 CET
Sereno
Sereno
 Wind from varies
Vento: variabile 7 km/h
Temperatura: 13°C
Punto di Rugiada: 6°C
Umidità: 63%
Barometro: 1029 hPa
Nuvole: Sereno
Visibilità: 10 km
2021/01/20 08:50 LICR 200850Z AUTO VRB04KT 9999 NCD 13/06 Q1029
LICJ - Palermo Punta Raisi, It
Distanza dalla Stazione: 762 km
Ultimo Aggiornamento: Mercoledì 20 Gennaio 2021 09:50 CET
Sereno
Sereno
 Wind from Sud
Vento: Sud 33 km/h
Temperatura: 14°C
Punto di Rugiada: 6°C
Umidità: 59%
Barometro: 1026 hPa
Condizioni: Sereno
Visibilità: superiore a 10 km
2021/01/20 08:50 LICJ 200850Z 18018KT CAVOK 14/06 Q1026
LICC - Catania Fontanarossa, It
Distanza dalla Stazione: 866 km
Ultimo Aggiornamento: Mercoledì 20 Gennaio 2021 09:50 CET
Parzialmente Nuvoloso
Parzialmente Nuvoloso
 Wind from Sud-Ovest
Vento: Sud-Ovest 11 km/h
Temperatura: 10°C
Wind Chill: 8°C
Punto di Rugiada: 6°C
Umidità: 76%
Barometro: 1029 hPa
Nuvole: Parzialmente Nuvoloso
Visibilità: 10 km
Nuvole nel Dettaglio: Parzialmente Nuvoloso 1829 m
2021/01/20 08:50 LICC 200850Z 23006KT 9999 SCT060 10/06 Q1029
 
LIEE - Cagliari Elmas, It
Distanza dalla Stazione: 655 km
Ultimo Aggiornamento: Mercoledì 20 Gennaio 2021 09:50 CET
Qualche Nuvola
Qualche Nuvola
 Wind from Nord
Vento: Nord 7 km/h
Temperatura: 5°C
Wind Chill: 3°C
Punto di Rugiada: 5°C
Umidità: 100%
Barometro: 1023 hPa
Nuvole: Qualche Nuvola
Visibilità: 9 km
Nuvole nel Dettaglio: Qualche Nuvola 914 m
2021/01/20 08:50 LIEE 200850Z 35004KT 9000 FEW030 05/05 Q1023
LIEO - Olbia, It
Distanza dalla Stazione: 463 km
Ultimo Aggiornamento: Mercoledì 20 Gennaio 2021 09:50 CET
Sereno
Sereno
 Wind from varies
Vento: variabile 4 km/h
Temperatura: 5°C
Punto di Rugiada: 5°C
Umidità: 100%
Barometro: 1023 hPa
Condizioni: Sereno
Visibilità: superiore a 10 km
2021/01/20 08:50 LIEO 200850Z VRB02KT CAVOK 05/05 Q1023
LICG - Pantelleria, It
Distanza dalla Stazione: 893 km
Ultimo Aggiornamento: Mercoledì 20 Gennaio 2021 09:50 CET
Qualche Nuvola
Qualche Nuvola
 Wind from Sud
Vento: Sud 43 km/h, Raffica: 61 km/h
Temperatura: 13°C
Punto di Rugiada: 9°C
Umidità: 77%
Barometro: 1026 hPa
Nuvole: Qualche Nuvola
Visibilità: 10 km
Nuvole nel Dettaglio: Qualche Nuvola 610 m
2021/01/20 08:50 LICG 200850Z 17023G33KT 9999 FEW020 13/09 Q1026